Map

Track Data

SID SEASON NUMBER BASIN SUBBASIN NAME ISO_TIME NATURE LAT LON WMO_WIND WMO_PRES WMO_AGENCY TRACK_TYPE DIST2LAND LANDFALL IFLAG USA_AGENCY USA_ATCF_ID USA_LAT USA_LON USA_RECORD USA_STATUS USA_WIND USA_PRES USA_SSHS USA_R34_NE USA_R34_SE USA_R34_SW USA_R34_NW USA_R50_NE USA_R50_SE USA_R50_SW USA_R50_NW USA_R64_NE USA_R64_SE USA_R64_SW USA_R64_NW USA_POCI USA_ROCI USA_RMW USA_EYE TOKYO_LAT TOKYO_LON TOKYO_GRADE TOKYO_WIND TOKYO_PRES TOKYO_R50_DIR TOKYO_R50_LONG TOKYO_R50_SHORT TOKYO_R30_DIR TOKYO_R30_LONG TOKYO_R30_SHORT TOKYO_LAND CMA_LAT CMA_LON CMA_CAT CMA_WIND CMA_PRES HKO_LAT HKO_LON HKO_CAT HKO_WIND HKO_PRES NEWDELHI_LAT NEWDELHI_LON NEWDELHI_GRADE NEWDELHI_WIND NEWDELHI_PRES NEWDELHI_CI NEWDELHI_DP NEWDELHI_POCI REUNION_LAT REUNION_LON REUNION_TYPE REUNION_WIND REUNION_PRES REUNION_TNUM REUNION_CI REUNION_RMW REUNION_R34_NE REUNION_R34_SE REUNION_R34_SW REUNION_R34_NW REUNION_R50_NE REUNION_R50_SE REUNION_R50_SW REUNION_R50_NW REUNION_R64_NE REUNION_R64_SE REUNION_R64_SW REUNION_R64_NW BOM_LAT BOM_LON BOM_TYPE BOM_WIND BOM_PRES BOM_TNUM BOM_CI BOM_RMW BOM_R34_NE BOM_R34_SE BOM_R34_SW BOM_R34_NW BOM_R50_NE BOM_R50_SE BOM_R50_SW BOM_R50_NW BOM_R64_NE BOM_R64_SE BOM_R64_SW BOM_R64_NW BOM_ROCI BOM_POCI BOM_EYE BOM_POS_METHOD BOM_PRES_METHOD NADI_LAT NADI_LON NADI_CAT NADI_WIND NADI_PRES WELLINGTON_LAT WELLINGTON_LON WELLINGTON_WIND WELLINGTON_PRES DS824_LAT DS824_LON DS824_STAGE DS824_WIND DS824_PRES TD9636_LAT TD9636_LON TD9636_STAGE TD9636_WIND TD9636_PRES TD9635_LAT TD9635_LON TD9635_WIND TD9635_PRES TD9635_ROCI NEUMANN_LAT NEUMANN_LON NEUMANN_CLASS NEUMANN_WIND NEUMANN_PRES MLC_LAT MLC_LON MLC_CLASS MLC_WIND MLC_PRES USA_GUST BOM_GUST BOM_GUST_PER REUNION_GUST REUNION_GUST_PER USA_SEAHGT USA_SEARAD_NE USA_SEARAD_SE USA_SEARAD_SW USA_SEARAD_NW STORM_SPEED STORM_DIR
1932304N15305 1932 70 NA NA NOT_NAMED 1932-10-30 06:00:00 TS 15.0000 -55.4000 25 hurdat_atl main 775 741 O_____________ hurdat_atl AL141932 15.0000 -55.4000 TD 25 -1 9 270
1932304N15305 1932 70 NA NA NOT_NAMED 1932-10-30 09:00:00 TS 14.9977 -55.8525 main 733 701 P_____________ AL141932 14.9977 -55.8525 TD 25 -1 9 270
1932304N15305 1932 70 NA NA NOT_NAMED 1932-10-30 12:00:00 TS 15.0000 -56.3000 25 hurdat_atl main 701 670 O_____________ hurdat_atl AL141932 15.0000 -56.3000 TD 25 -1 9 271
1932304N15305 1932 70 NA NA NOT_NAMED 1932-10-30 15:00:00 TS 15.0074 -56.7425 main 670 633 P_____________ AL141932 15.0074 -56.7425 TD 27 -1 9 270
1932304N15305 1932 70 NA NA NOT_NAMED 1932-10-30 18:00:00 TS 15.0000 -57.2000 30 hurdat_atl main 633 599 O_____________ hurdat_atl AL141932 15.0000 -57.2000 TD 30 -1 9 266
1932304N15305 1932 70 NA NA NOT_NAMED 1932-10-30 21:00:00 TS 14.9499 -57.6851 main 591 559 P_____________ AL141932 14.9499 -57.6851 TD 30 -1 10 264
1932304N15305 1932 70 NA NA NOT_NAMED 1932-10-31 00:00:00 TS 14.9000 -58.2000 30 hurdat_atl main 559 532 O_____________ hurdat_atl AL141932 14.9000 -58.2000 TD 30 -1 10 267
1932304N15305 1932 70 NA NA NOT_NAMED 1932-10-31 03:00:00 TS 14.8999 -58.7349 main 532 505 P_____________ AL141932 14.8999 -58.7349 TD 30 -1 11 270
1932304N15305 1932 70 NA NA NOT_NAMED 1932-10-31 06:00:00 TS 14.9000 -59.3000 30 hurdat_atl main 505 485 O_____________ hurdat_atl AL141932 14.9000 -59.3000 TD 30 -1 11 267
1932304N15305 1932 70 NA CS NOT_NAMED 1932-10-31 09:00:00 TS 14.8499 -59.8926 main 474 462 P_____________ AL141932 14.8499 -59.8926 TD 30 -1 12 265
1932304N15305 1932 70 NA CS NOT_NAMED 1932-10-31 12:00:00 TS 14.8000 -60.5000 30 hurdat_atl main 462 459 O_____________ hurdat_atl AL141932 14.8000 -60.5000 TD 30 -1 12 268
1932304N15305 1932 70 NA CS NOT_NAMED 1932-10-31 15:00:00 TS 14.7998 -61.0924 main 459 459 P_____________ AL141932 14.7998 -61.0924 TD 32 -1 12 270
1932304N15305 1932 70 NA CS NOT_NAMED 1932-10-31 18:00:00 TS 14.8000 -61.7000 35 hurdat_atl main 459 459 O_____________ hurdat_atl AL141932 14.8000 -61.7000 TS 35 0 12 268
1932304N15305 1932 70 NA CS NOT_NAMED 1932-10-31 21:00:00 TS 14.7572 -62.3275 main 459 447 P_____________ AL141932 14.7572 -62.3275 TS 37 0 13 265
1932304N15305 1932 70 NA CS NOT_NAMED 1932-11-01 00:00:00 TS 14.7000 -63.0000 40 hurdat_atl main 447 432 O_____________ hurdat_atl AL141932 14.7000 -63.0000 TS 40 0 14 265
1932304N15305 1932 70 NA CS NOT_NAMED 1932-11-01 03:00:00 TS 14.6499 -63.7350 main 441 405 P_____________ AL141932 14.6499 -63.7350 TS 42 0 15 266
1932304N15305 1932 70 NA CS NOT_NAMED 1932-11-01 06:00:00 TS 14.6000 -64.5000 45 hurdat_atl main 405 384 O_____________ hurdat_atl AL141932 14.6000 -64.5000 TS 45 0 15 266
1932304N15305 1932 70 NA CS NOT_NAMED 1932-11-01 09:00:00 TS 14.5575 -65.2724 main 381 379 P_____________ AL141932 14.5575 -65.2724 TS 47 0 15 266
1932304N15305 1932 70 NA CS NOT_NAMED 1932-11-01 12:00:00 TS 14.5000 -66.0000 50 hurdat_atl main 381 380 O_____________ hurdat_atl AL141932 14.5000 -66.0000 TS 50 0 13 264
1932304N15305 1932 70 NA CS NOT_NAMED 1932-11-01 15:00:00 TS 14.4073 -66.6375 main 393 368 P_____________ AL141932 14.4073 -66.6375 TS 52 0 12 260
1932304N15305 1932 70 NA CS NOT_NAMED 1932-11-01 18:00:00 TS 14.3000 -67.2000 55 hurdat_atl main 368 334 O_____________ hurdat_atl AL141932 14.3000 -67.2000 TS 55 0 11 259
1932304N15305 1932 70 NA CS NOT_NAMED 1932-11-01 21:00:00 TS 14.1999 -67.7299 main 334 289 P_____________ AL141932 14.1999 -67.7299 TS 57 0 10 258
1932304N15305 1932 70 NA CS NOT_NAMED 1932-11-02 00:00:00 TS 14.1000 -68.2000 60 hurdat_atl main 289 255 O_____________ hurdat_atl AL141932 14.1000 -68.2000 TS 60 0 9 257
1932304N15305 1932 70 NA CS NOT_NAMED 1932-11-02 03:00:00 TS 13.9999 -68.6375 main 255 223 P_____________ AL141932 13.9999 -68.6375 TS 62 0 8 256
1932304N15305 1932 70 NA CS NOT_NAMED 1932-11-02 06:00:00 TS 13.9000 -69.0000 65 hurdat_atl main 223 201 O_____________ hurdat_atl AL141932 13.9000 -69.0000 HU 65 1 6 252
1932304N15305 1932 70 NA CS NOT_NAMED 1932-11-02 09:00:00 TS 13.7999 -69.2724 main 201 184 P_____________ AL141932 13.7999 -69.2724 HU 67 1 5 248
1932304N15305 1932 70 NA CS NOT_NAMED 1932-11-02 12:00:00 TS 13.7000 -69.5000 70 hurdat_atl main 184 169 O_____________ hurdat_atl AL141932 13.7000 -69.5000 HU 70 1 5 246
1932304N15305 1932 70 NA CS NOT_NAMED 1932-11-02 15:00:00 TS 13.5925 -69.7500 main 169 156 P_____________ AL141932 13.5925 -69.7500 HU 72 1 5 248
1932304N15305 1932 70 NA CS NOT_NAMED 1932-11-02 18:00:00 TS 13.5000 -70.0000 75 hurdat_atl main 156 145 O_____________ hurdat_atl AL141932 13.5000 -70.0000 HU 75 1 5 253
1932304N15305 1932 70 NA CS NOT_NAMED 1932-11-02 21:00:00 TS 13.4425 -70.2500 main 145 145 P_____________ AL141932 13.4425 -70.2500 HU 77 1 5 258
1932304N15305 1932 70 NA CS NOT_NAMED 1932-11-03 00:00:00 TS 13.4000 -70.5000 80 hurdat_atl main 149 129 O_____________ hurdat_atl AL141932 13.4000 -70.5000 HU 80 1 5 258
1932304N15305 1932 70 NA CS NOT_NAMED 1932-11-03 03:00:00 TS 13.3425 -70.7500 main 124 114 P_____________ AL141932 13.3425 -70.7500 HU 82 1 5 258
1932304N15305 1932 70 NA CS NOT_NAMED 1932-11-03 06:00:00 TS 13.3000 -71.0000 85 hurdat_atl main 114 105 O_____________ hurdat_atl AL141932 13.3000 -71.0000 HU 85 2 5 263
1932304N15305 1932 70 NA CS NOT_NAMED 1932-11-03 09:00:00 TS 13.2850 -71.2425 main 105 100 P_____________ AL141932 13.2850 -71.2425 HU 85 2 5 270
1932304N15305 1932 70 NA CS NOT_NAMED 1932-11-03 12:00:00 TS 13.3000 -71.5000 85 hurdat_atl main 100 100 O_____________ hurdat_atl AL141932 13.3000 -71.5000 HU 85 2 5 276
1932304N15305 1932 70 NA CS NOT_NAMED 1932-11-03 15:00:00 TS 13.3424 -71.7775 main 101 101 P_____________ AL141932 13.3424 -71.7775 HU 85 2 6 280
1932304N15305 1932 70 NA CS NOT_NAMED 1932-11-03 18:00:00 TS 13.4000 -72.1000 85 hurdat_atl main 120 120 O_____________ hurdat_atl AL141932 13.4000 -72.1000 HU 85 2 7 278
1932304N15305 1932 70 NA CS NOT_NAMED 1932-11-03 21:00:00 TS 13.4425 -72.4850 main 134 134 P_____________ AL141932 13.4425 -72.4850 HU 87 2 8 277
1932304N15305 1932 70 NA CS NOT_NAMED 1932-11-04 00:00:00 TS 13.5000 -72.9000 90 hurdat_atl main 164 164 O_____________ hurdat_atl AL141932 13.5000 -72.9000 HU 90 2 8 281
1932304N15305 1932 70 NA CS NOT_NAMED 1932-11-04 03:00:00 TS 13.6000 -73.3074 main 196 196 P_____________ AL141932 13.6000 -73.3074 HU 90 2 8 284
1932304N15305 1932 70 NA CS NOT_NAMED 1932-11-04 06:00:00 TS 13.7000 -73.7000 90 hurdat_atl main 233 233 O_____________ hurdat_atl AL141932 13.7000 -73.7000 HU 90 2 8 283
1932304N15305 1932 70 NA CS NOT_NAMED 1932-11-04 09:00:00 TS 13.7649 -74.0650 main 272 272 P_____________ AL141932 13.7649 -74.0650 HU 90 2 7 278
1932304N15305 1932 70 NA CS NOT_NAMED 1932-11-04 12:00:00 TS 13.8000 -74.4000 90 hurdat_atl main 291 291 O_____________ hurdat_atl AL141932 13.8000 -74.4000 HU 90 2 6 274
1932304N15305 1932 70 NA CS NOT_NAMED 1932-11-04 15:00:00 TS 13.8074 -74.6925 main 296 296 P_____________ AL141932 13.8074 -74.6925 HU 95 2 6 270
1932304N15305 1932 70 NA CS NOT_NAMED 1932-11-04 18:00:00 TS 13.8000 -75.0000 100 hurdat_atl main 303 303 O_____________ hurdat_atl AL141932 13.8000 -75.0000 HU 100 3 7 269
1932304N15305 1932 70 NA CS NOT_NAMED 1932-11-04 21:00:00 TS 13.7924 -75.3701 main 318 318 P_____________ AL141932 13.7924 -75.3701 HU 105 3 8 270
1932304N15305 1932 70 NA CS NOT_NAMED 1932-11-05 00:00:00 TS 13.8000 -75.8000 110 hurdat_atl main 328 328 O_____________ hurdat_atl AL141932 13.8000 -75.8000 HU 110 3 9 273
1932304N15305 1932 70 NA CS NOT_NAMED 1932-11-05 03:00:00 TS 13.8425 -76.2850 main 348 348 P_____________ AL141932 13.8425 -76.2850 HU 115 4 10 276
1932304N15305 1932 70 NA CS NOT_NAMED 1932-11-05 06:00:00 TS 13.9000 -76.8000 120 hurdat_atl main 383 383 O_____________ hurdat_atl AL141932 13.9000 -76.8000 HU 120 4 10 276
1932304N15305 1932 70 NA CS NOT_NAMED 1932-11-05 09:00:00 TS 13.9500 -77.3225 main 414 414 P_____________ AL141932 13.9500 -77.3225 HU 125 4 10 276
1932304N15305 1932 70 NA CS NOT_NAMED 1932-11-05 12:00:00 TS 14.0000 -77.8000 130 hurdat_atl main 419 419 O_____________ hurdat_atl AL141932 14.0000 -77.8000 HU 130 4 9 277
1932304N15305 1932 70 NA CS NOT_NAMED 1932-11-05 15:00:00 TS 14.0499 -78.1950 main 427 416 P_____________ AL141932 14.0499 -78.1950 HU 135 4 7 278
1932304N15305 1932 70 NA CS NOT_NAMED 1932-11-05 18:00:00 TS 14.1000 -78.5000 140 hurdat_atl main 426 426 O_____________ hurdat_atl AL141932 14.1000 -78.5000 HU 140 5 5 281
1932304N15305 1932 70 NA CS NOT_NAMED 1932-11-05 21:00:00 TS 14.1499 -78.7300 main 433 423 P_____________ AL141932 14.1499 -78.7300 HU 145 5 4 284
1932304N15305 1932 70 NA CS NOT_NAMED 1932-11-06 00:00:00 TS 14.2000 -78.9000 150 hurdat_atl main 431 431 O_____________ hurdat_atl AL141932 14.2000 -78.9000 HU 150 5 3 288
1932304N15305 1932 70 NA CS NOT_NAMED 1932-11-06 03:00:00 TS 14.2500 -79.0575 main 439 427 P_____________ AL141932 14.2500 -79.0575 HU 150 5 3 289
1932304N15305 1932 70 NA CS NOT_NAMED 1932-11-06 06:00:00 TS 14.3000 -79.2000 150 hurdat_atl main 427 416 O_____________ hurdat_atl AL141932 14.3000 -79.2000 HU 150 5 3 288
1932304N15305 1932 70 NA CS NOT_NAMED 1932-11-06 09:00:00 TS 14.3425 -79.3500 main 405 393 P_____________ AL141932 14.3425 -79.3500 HU 150 5 3 289
1932304N15305 1932 70 NA CS NOT_NAMED 1932-11-06 12:00:00 TS 14.4000 -79.5000 150 hurdat_atl main 393 380 O_____________ hurdat_atl AL141932 14.4000 -79.5000 HU 150 5 3 296
1932304N15305 1932 70 NA CS NOT_NAMED 1932-11-06 15:00:00 TS 14.4850 -79.6500 main 370 357 P_____________ AL141932 14.4850 -79.6500 HU 150 5 4 304
1932304N15305 1932 70 NA CS NOT_NAMED 1932-11-06 18:00:00 TS 14.6000 -79.8000 150 hurdat_atl main 357 345 O_____________ hurdat_atl AL141932 14.6000 -79.8000 HU 150 5 4 312
1932304N15305 1932 70 NA CS NOT_NAMED 1932-11-06 21:00:00 TS 14.7425 -79.9500 main 335 322 P_____________ AL141932 14.7425 -79.9500 HU 147 5 4 316
1932304N15305 1932 70 NA CS NOT_NAMED 1932-11-07 00:00:00 TS 14.9000 -80.1000 145 hurdat_atl main 322 311 O_____________ hurdat_atl AL141932 14.9000 -80.1000 HU 145 5 4 317
1932304N15305 1932 70 NA CS NOT_NAMED 1932-11-07 03:00:00 TS 15.0500 -80.2500 main 300 290 P_____________ AL141932 15.0500 -80.2500 HU 145 5 4 316
1932304N15305 1932 70 NA CS NOT_NAMED 1932-11-07 06:00:00 TS 15.2000 -80.4000 145 hurdat_atl main 290 281 O_____________ hurdat_atl AL141932 15.2000 -80.4000 HU 145 5 4 315
1932304N15305 1932 70 NA CS NOT_NAMED 1932-11-07 09:00:00 TS 15.3500 -80.5575 main 272 263 P_____________ AL141932 15.3500 -80.5575 HU 145 5 4 316
1932304N15305 1932 70 NA CS NOT_NAMED 1932-11-07 12:00:00 TS 15.5000 -80.7000 145 hurdat_atl main 263 255 O_____________ hurdat_atl AL141932 15.5000 -80.7000 HU 145 5 4 320
1932304N15305 1932 70 NA CS NOT_NAMED 1932-11-07 15:00:00 TS 15.6425 -80.8075 main 255 248 P_____________ AL141932 15.6425 -80.8075 HU 145 5 4 327
1932304N15305 1932 70 NA CS NOT_NAMED 1932-11-07 18:00:00 TS 15.8000 -80.9000 145 hurdat_atl main 252 246 O_____________ hurdat_atl AL141932 15.8000 -80.9000 HU 145 5 4 330
1932304N15305 1932 70 NA CS NOT_NAMED 1932-11-07 21:00:00 TS 15.9850 -81.0150 main 251 247 P_____________ AL141932 15.9850 -81.0150 HU 142 5 4 334
1932304N15305 1932 70 NA CS NOT_NAMED 1932-11-08 00:00:00 TS 16.2000 -81.1000 140 hurdat_atl main 252 252 O_____________ hurdat_atl AL141932 16.2000 -81.1000 HU 140 5 5 347
1932304N15305 1932 70 NA CS NOT_NAMED 1932-11-08 03:00:00 TS 16.4350 -81.1225 main 265 265 P_____________ AL141932 16.4350 -81.1225 HU 140 5 5 2
1932304N15305 1932 70 NA CS NOT_NAMED 1932-11-08 06:00:00 TS 16.7000 -81.1000 140 hurdat_atl main 286 286 O_____________ hurdat_atl AL141932 16.7000 -81.1000 HU 140 5 5 6
1932304N15305 1932 70 NA CS NOT_NAMED 1932-11-08 09:00:00 TS 16.9775 -81.0650 main 309 293 P_____________ AL141932 16.9775 -81.0650 HU 140 5 6 9
1932304N15305 1932 70 NA CS NOT_NAMED 1932-11-08 12:00:00 TS 17.3000 -81.0000 140 hurdat_atl main 293 272 O_____________ hurdat_atl AL141932 17.3000 -81.0000 HU 140 5 7 12
1932304N15305 1932 70 NA CS NOT_NAMED 1932-11-08 15:00:00 TS 17.6700 -80.9075 main 270 253 P_____________ AL141932 17.6700 -80.9075 HU 140 5 8 13
1932304N15305 1932 70 NA CS NOT_NAMED 1932-11-08 18:00:00 TS 18.1000 -80.8000 140 hurdat_atl main 253 246 O_____________ hurdat_atl AL141932 18.1000 -80.8000 HU 140 5 9 9
1932304N15305 1932 70 NA CS NOT_NAMED 1932-11-08 21:00:00 TS 18.5924 -80.7446 main 246 246 P_____________ AL141932 18.5924 -80.7446 HU 137 5 10 11
1932304N15305 1932 70 NA CS NOT_NAMED 1932-11-09 00:00:00 TS 19.1000 -80.6000 135 hurdat_atl main 252 242 O_____________ hurdat_atl AL141932 19.1000 -80.6000 HU 135 4 11 26
1932304N15305 1932 70 NA CS NOT_NAMED 1932-11-09 03:00:00 TS 19.5651 -80.2526 main 236 175 P_____________ AL141932 19.5651 -80.2526 HU 135 4 12 40
1932304N15305 1932 70 NA CS NOT_NAMED 1932-11-09 06:00:00 TS 20.0000 -79.8000 135 hurdat_atl main 175 115 O_____________ hurdat_atl AL141932 20.0000 -79.8000 HU 135 4 12 44
1932304N15305 1932 70 NA CS NOT_NAMED 1932-11-09 09:00:00 TS 20.4147 -79.3797 main 115 47 P_____________ AL141932 20.4147 -79.3797 HU 132 4 12 47
1932304N15305 1932 70 NA CS NOT_NAMED 1932-11-09 12:00:00 TS 20.8000 -78.9000 130 918 hurdat_atl main 47 0 O_____________ hurdat_atl AL141932 20.8000 -78.9000 HU 130 918 4 12 53
1932304N15305 1932 70 NA NA NOT_NAMED 1932-11-09 15:00:00 TS 21.1650 -78.3224 main 0 0 P_____________ AL141932 21.1650 -78.3224 HU 125 4 13 58
1932304N15305 1932 70 NA NA NOT_NAMED 1932-11-09 18:00:00 TS 21.5000 -77.7000 120 hurdat_atl main 0 0 O_____________ hurdat_atl AL141932 21.5000 -77.7000 HU 120 4 13 61
1932304N15305 1932 70 NA NA NOT_NAMED 1932-11-09 21:00:00 TS 21.7848 -77.0994 main 11 11 P_____________ AL141932 21.7848 -77.0994 HU 117 4 13 62
1932304N15305 1932 70 NA NA NOT_NAMED 1932-11-10 00:00:00 TS 22.1000 -76.5000 115 hurdat_atl main 76 76 O_____________ hurdat_atl AL141932 22.1000 -76.5000 HU 115 4 13 56
1932304N15305 1932 70 NA NA NOT_NAMED 1932-11-10 03:00:00 TS 22.5347 -75.9074 main 148 148 P_____________ AL141932 22.5347 -75.9074 HU 112 3 14 51
1932304N15305 1932 70 NA NA NOT_NAMED 1932-11-10 06:00:00 TS 23.0000 -75.3000 110 hurdat_atl main 221 221 O_____________ hurdat_atl AL141932 23.0000 -75.3000 HU 110 3 14 52
1932304N15305 1932 70 NA NA NOT_NAMED 1932-11-10 09:00:00 TS 23.4071 -74.6719 main 276 273 P_____________ AL141932 23.4071 -74.6719 HU 107 3 14 56
1932304N15305 1932 70 NA NA NOT_NAMED 1932-11-10 12:00:00 TS 23.8000 -74.0000 105 hurdat_atl main 302 299 O_____________ hurdat_atl AL141932 23.8000 -74.0000 HU 105 3 15 59
1932304N15305 1932 70 NA NA NOT_NAMED 1932-11-10 15:00:00 TS 24.2001 -73.2424 main 335 335 P_____________ AL141932 24.2001 -73.2424 HU 102 3 16 60
1932304N15305 1932 70 NA NA NOT_NAMED 1932-11-10 18:00:00 TS 24.6000 -72.5000 100 hurdat_atl main 383 383 O_____________ hurdat_atl AL141932 24.6000 -72.5000 HU 100 3 15 58
1932304N15305 1932 70 NA NA NOT_NAMED 1932-11-10 21:00:00 TS 24.9921 -71.8620 main 439 439 P_____________ AL141932 24.9921 -71.8620 HU 97 3 14 54
1932304N15305 1932 70 NA NA NOT_NAMED 1932-11-11 00:00:00 TS 25.4000 -71.3000 95 hurdat_atl main 500 500 O_____________ hurdat_atl AL141932 25.4000 -71.3000 HU 95 2 13 49
1932304N15305 1932 70 NA NA NOT_NAMED 1932-11-11 03:00:00 TS 25.8347 -70.7845 main 560 560 P_____________ AL141932 25.8347 -70.7845 HU 92 2 13 45
1932304N15305 1932 70 NA NA NOT_NAMED 1932-11-11 06:00:00 TS 26.3000 -70.3000 90 hurdat_atl main 632 632 O_____________ hurdat_atl AL141932 26.3000 -70.3000 HU 90 2 13 42
1932304N15305 1932 70 NA NA NOT_NAMED 1932-11-11 09:00:00 TS 26.7922 -69.8071 main 705 705 P_____________ AL141932 26.7922 -69.8071 HU 87 2 13 42
1932304N15305 1932 70 NA NA NOT_NAMED 1932-11-11 12:00:00 TS 27.3000 -69.3000 85 hurdat_atl main 777 777 O_____________ hurdat_atl AL141932 27.3000 -69.3000 HU 85 2 14 43
1932304N15305 1932 70 NA NA NOT_NAMED 1932-11-11 15:00:00 TS 27.7998 -68.7645 main 850 850 P_____________ AL141932 27.7998 -68.7645 HU 85 2 14 44
1932304N15305 1932 70 NA NA NOT_NAMED 1932-11-11 18:00:00 TS 28.3000 -68.2000 85 hurdat_atl main 929 929 O_____________ hurdat_atl AL141932 28.3000 -68.2000 HU 85 2 14 45
1932304N15305 1932 70 NA NA NOT_NAMED 1932-11-11 21:00:00 TS 28.7997 -67.6144 main 1007 1007 P_____________ AL141932 28.7997 -67.6144 HU 85 2 15 46
1932304N15305 1932 70 NA NA NOT_NAMED 1932-11-12 00:00:00 TS 29.3000 -67.0000 85 hurdat_atl main 1073 1073 O_____________ hurdat_atl AL141932 29.3000 -67.0000 HU 85 2 15 47
1932304N15305 1932 70 NA NA NOT_NAMED 1932-11-12 03:00:00 TS 29.7997 -66.3643 main 1080 1080 P_____________ AL141932 29.7997 -66.3643 HU 85 2 15 48
1932304N15305 1932 70 NA NA NOT_NAMED 1932-11-12 06:00:00 TS 30.3000 -65.7000 85 hurdat_atl main 1097 1097 O_____________ hurdat_atl AL141932 30.3000 -65.7000 HU 85 2 15 49
1932304N15305 1932 70 NA NA NOT_NAMED 1932-11-12 09:00:00 TS 30.7764 -65.0505 main 1113 1113 P_____________ AL141932 30.7764 -65.0505 HU 85 2 16 50
1932304N15305 1932 70 NA NA NOT_NAMED 1932-11-12 12:00:00 TS 31.3000 -64.3000 85 hurdat_atl main 1149 1149 O_____________ hurdat_atl AL141932 31.3000 -64.3000 HU 85 2 18 52
1932304N15305 1932 70 NA NA NOT_NAMED 1932-11-12 15:00:00 TS 31.8822 -63.3652 main 1195 1195 P_____________ AL141932 31.8822 -63.3652 HU 82 1 21 53
1932304N15305 1932 70 NA NA NOT_NAMED 1932-11-12 18:00:00 TS 32.6000 -62.3000 80 hurdat_atl main 1219 1174 O_____________ hurdat_atl AL141932 32.6000 -62.3000 HU 80 1 24 49
1932304N15305 1932 70 NA NA NOT_NAMED 1932-11-12 21:00:00 TS 33.4577 -61.2347 main 1168 1103 P_____________ AL141932 33.4577 -61.2347 HU 77 1 27 45
1932304N15305 1932 70 NA NA NOT_NAMED 1932-11-13 00:00:00 TS 34.5000 -60.0000 75 hurdat_atl main 1100 1043 O_____________ hurdat_atl AL141932 34.5000 -60.0000 HU 75 1 32 45
1932304N15305 1932 70 NA NA NOT_NAMED 1932-11-13 03:00:00 TS 35.7196 -58.4897 main 1043 984 P_____________ AL141932 35.7196 -58.4897 HU 72 1 36 46
1932304N15305 1932 70 NA NA NOT_NAMED 1932-11-13 06:00:00 TS 37.0000 -56.8000 70 hurdat_atl main 980 918 O_____________ hurdat_atl AL141932 37.0000 -56.8000 HU 70 1 37 47
1932304N15305 1932 70 NA NA NOT_NAMED 1932-11-13 09:00:00 TS 38.2688 -55.0605 main 913 811 P_____________ AL141932 38.2688 -55.0605 HU 65 1 36 50
1932304N15305 1932 70 NA NA NOT_NAMED 1932-11-13 12:00:00 TS 39.3000 -53.3000 60 hurdat_atl main 811 753 O_____________ hurdat_atl AL141932 39.3000 -53.3000 TS 60 0 31 58
1932304N15305 1932 70 NA NA NOT_NAMED 1932-11-13 15:00:00 TS 39.9125 -51.6072 main 756 744 P_____________ AL141932 39.9125 -51.6072 TS 60 0 27 70
1932304N15305 1932 70 NA NA NOT_NAMED 1932-11-13 18:00:00 TS 40.2000 -50.0000 60 hurdat_atl main 756 756 O_____________ hurdat_atl AL141932 40.2000 -50.0000 TS 60 0 24 80
1932304N15305 1932 70 NA NA NOT_NAMED 1932-11-13 21:00:00 TS 40.3205 -48.5115 main 795 795 P_____________ AL141932 40.3205 -48.5115 TS 57 0 23 87
1932304N15305 1932 70 NA NA NOT_NAMED 1932-11-14 00:00:00 ET 40.3000 -47.0000 55 hurdat_atl main 859 859 O_____________ hurdat_atl AL141932 40.3000 -47.0000 EX 55 -4 25 91
1932304N15305 1932 70 NA NA NOT_NAMED 1932-11-14 03:00:00 ET 40.2714 -45.2871 main 944 944 P_____________ AL141932 40.2714 -45.2871 EX 52 -4 27 92
1932304N15305 1932 70 NA NA NOT_NAMED 1932-11-14 06:00:00 ET 40.2000 -43.5000 50 hurdat_atl main 1054 1054 O_____________ hurdat_atl AL141932 40.2000 -43.5000 EX 50 -4 27 94
1932304N15305 1932 70 NA NA NOT_NAMED 1932-11-14 09:00:00 ET 40.1031 -41.7874 main 1166 1166 P_____________ AL141932 40.1031 -41.7874 EX 47 -4 27 94
1932304N15305 1932 70 NA NA NOT_NAMED 1932-11-14 12:00:00 ET 40.0000 -40.0000 45 hurdat_atl main 1288 1288 O_____________ hurdat_atl AL141932 40.0000 -40.0000 EX 45 -4 29 94
1932304N15305 1932 70 NA NA NOT_NAMED 1932-11-14 15:00:00 ET 39.9060 -38.0492 main 1427 1427 P_____________ AL141932 39.9060 -38.0492 EX 45 -4 31 94
1932304N15305 1932 70 NA NA NOT_NAMED 1932-11-14 18:00:00 ET 39.8000 -36.0000 45 hurdat_atl main 1571 O_____________ hurdat_atl AL141932 39.8000 -36.0000 EX 45 -4 31 94

About IBTrACS Database

This database is a web-friendly format of International Best Track Archive for Climate Stewardship (IBTrACS), a global best track data archive curated by NOAA dating back to 1842.

Updated: 2021-11-26